Bahamas Celebration — C6XJ3 — position and weather

sailwx.info

Track history (hours):
 
Tides and Currents Weather Stations Pressure Air Temp Water Temp Dewpoint Dewpoint Depression Visibility Wind Speed Wind Dir Waves Ship Positions

Bahamas Celebration

Last reported at 2014-Aug-01 07:32 UTC. Time now 2014-Aug-01 07:49 UTC.
Position N 26°39' W 079°37'.

Length 202 m; draft 6.1 m.

Type: Passenger vessel. MMSI: 311011300.

Date/timePositionNaut miles runAvg speedWind from/ knotsBaromVisibWave heightAir tempDewpointWater temp
2014-Aug-01 07:32N 26°39' W 079°37'8 0.3
2014-Jul-31 04:25N 26°44' W 079°30'6 6.7
2014-Jul-31 03:31N 26°47' W 079°36'6 5.9
2014-Jul-31 02:33N 26°48' W 079°43'4 3.8
2014-Jul-31 01:33N 26°47' W 079°47'3 3.4
2014-Jul-31 00:33N 26°46' W 079°50'5 4.9
2014-Jul-30 23:32N 26°46' W 079°56'6 3.0
2014-Jul-30 21:23N 26°46' W 080°03'0 0.0
2014-Jul-30 20:14N 26°46' W 080°03'0 0.0
2014-Jul-30 14:30N 26°46' W 080°03'0 0.0
2014-Jul-30 13:24N 26°46' W 080°03'0 0.0
2014-Jul-30 11:21N 26°46' W 080°03'2 2.7
2014-Jul-30 10:33N 26°46' W 080°01'9 8.7
2014-Jul-30 09:33N 26°43' W 079°52'7 7.2
2014-Jul-30 08:33N 26°40' W 079°44'6 5.7
2014-Jul-30 07:31N 26°38' W 079°38'6 5.8
2014-Jul-30 06:32N 26°36' W 079°32'19 0.7
2014-Jul-29 01:16N 26°49' W 079°48'8 4.2
2014-Jul-28 23:15N 26°45' W 079°56'6 8.0
2014-Jul-28 22:33N 26°46' W 080°03'1 0.1
2014-Jul-28 14:19N 26°46' W 080°03'0 0.0
2014-Jul-28 13:28N 26°46' W 080°03'0 0.0
2014-Jul-28 11:31N 26°46' W 080°03'2 2.5
2014-Jul-28 10:33N 26°46' W 080°01'10 9.7
2014-Jul-28 09:33N 26°42' W 079°51'8 7.6
2014-Jul-28 08:33N 26°40' W 079°43'7 6.4
2014-Jul-28 07:31N 26°38' W 079°35'5 4.7
2014-Jul-28 06:28N 26°37' W 079°30'6 4.9
2014-Jul-28 05:09N 26°35' W 079°23'4 5.3
2014-Jul-28 04:29N 26°33' W 079°20'6 6.0
2014-Jul-28 03:27N 26°32' W 079°13'5 5.6
2014-Jul-28 02:33N 26°31' W 079°07'5 5.2
2014-Jul-28 01:33N 26°29' W 079°02'4 4.2
2014-Jul-28 00:30N 26°27' W 078°57'4 4.3
2014-Jul-27 23:33N 26°28' W 078°53'60 2.5
2014-Jul-26 23:25N 26°46' W 079°56'6 6.1
2014-Jul-26 22:25N 26°46' W 080°03'0 0.0
2014-Jul-26 21:07N 26°46' W 080°03'0 0.0
2014-Jul-26 20:31N 26°46' W 080°03'0 0.0
2014-Jul-26 19:07N 26°46' W 080°03'0 0.0
2014-Jul-26 17:31N 26°46' W 080°03'0 0.0
2014-Jul-26 14:25N 26°46' W 080°03'0 0.0
2014-Jul-26 12:13N 26°46' W 080°03'0 0.0
2014-Jul-26 11:25N 26°46' W 080°03'4 4.5
2014-Jul-26 10:33N 26°45' W 079°59'8 8.2
2014-Jul-26 09:33N 26°41' W 079°51'8 8.1
2014-Jul-26 08:33N 26°38' W 079°43'6 6.1
2014-Jul-26 07:31N 26°36' W 079°36'26 0.8
2014-Jul-24 22:27N 26°46' W 080°03'0 0.0
2014-Jul-24 11:13N 26°46' W 080°03'4 6.1
2014-Jul-24 10:31N 26°44' W 079°59'8 8.1
2014-Jul-24 09:32N 26°41' W 079°51'7 7.5
2014-Jul-24 08:33N 26°38' W 079°43'6 5.8
2014-Jul-24 07:33N 26°36' W 079°37'5 4.7
2014-Jul-24 06:33N 26°34' W 079°32'26 0.8
2014-Jul-22 23:10N 26°46' W 079°58'4 6.4
2014-Jul-22 22:33N 26°46' W 080°03'1 0.5
2014-Jul-22 21:32N 26°46' W 080°03'0 0.0
2014-Jul-22 18:11N 26°46' W 080°03'0 0.0
2014-Jul-22 16:11N 26°46' W 080°03'0 0.0
2014-Jul-22 15:17N 26°46' W 080°03'0 0.0
2014-Jul-22 12:11N 26°46' W 080°03'0 0.0
2014-Jul-22 11:21N 26°46' W 080°03'3 3.9
2014-Jul-22 10:33N 26°45' W 079°60'6 6.1
2014-Jul-22 09:34N 26°41' W 079°55'9 8.8
2014-Jul-22 08:33N 26°39' W 079°45'6 6.1
2014-Jul-22 07:33N 26°36' W 079°39'  
Track history (hours):
 
Tides and Currents Weather Stations Pressure Air Temp Water Temp Dewpoint Dewpoint Depression Visibility Wind Speed Wind Dir Waves Ship Positions

Bahamas Celebration

Last reported at 2014-Aug-01 07:32 UTC. Time now 2014-Aug-01 07:49 UTC.
Position N 26°39' W 079°37'.

Length 202 m; draft 6.1 m.

Type: Passenger vessel. MMSI: 311011300.

Date/timePositionNaut miles runAvg speedWind from/ knotsBaromVisibWave heightAir tempDewpointWater temp
2014-Aug-01 07:32N 26°39' W 079°37'8 0.3
2014-Jul-31 04:25N 26°44' W 079°30'6 6.7
2014-Jul-31 03:31N 26°47' W 079°36'6 5.9
2014-Jul-31 02:33N 26°48' W 079°43'4 3.8
2014-Jul-31 01:33N 26°47' W 079°47'3 3.4
2014-Jul-31 00:33N 26°46' W 079°50'5 4.9
2014-Jul-30 23:32N 26°46' W 079°56'6 3.0
2014-Jul-30 21:23N 26°46' W 080°03'0 0.0
2014-Jul-30 20:14N 26°46' W 080°03'0 0.0
2014-Jul-30 14:30N 26°46' W 080°03'0 0.0
2014-Jul-30 13:24N 26°46' W 080°03'0 0.0
2014-Jul-30 11:21N 26°46' W 080°03'2 2.7
2014-Jul-30 10:33N 26°46' W 080°01'9 8.7
2014-Jul-30 09:33N 26°43' W 079°52'7 7.2
2014-Jul-30 08:33N 26°40' W 079°44'6 5.7
2014-Jul-30 07:31N 26°38' W 079°38'6 5.8
2014-Jul-30 06:32N 26°36' W 079°32'19 0.7
2014-Jul-29 01:16N 26°49' W 079°48'8 4.2
2014-Jul-28 23:15N 26°45' W 079°56'6 8.0
2014-Jul-28 22:33N 26°46' W 080°03'1 0.1
2014-Jul-28 14:19N 26°46' W 080°03'0 0.0
2014-Jul-28 13:28N 26°46' W 080°03'0 0.0
2014-Jul-28 11:31N 26°46' W 080°03'2 2.5
2014-Jul-28 10:33N 26°46' W 080°01'10 9.7
2014-Jul-28 09:33N 26°42' W 079°51'8 7.6
2014-Jul-28 08:33N 26°40' W 079°43'7 6.4
2014-Jul-28 07:31N 26°38' W 079°35'5 4.7
2014-Jul-28 06:28N 26°37' W 079°30'6 4.9
2014-Jul-28 05:09N 26°35' W 079°23'4 5.3
2014-Jul-28 04:29N 26°33' W 079°20'6 6.0
2014-Jul-28 03:27N 26°32' W 079°13'5 5.6
2014-Jul-28 02:33N 26°31' W 079°07'5 5.2
2014-Jul-28 01:33N 26°29' W 079°02'4 4.2
2014-Jul-28 00:30N 26°27' W 078°57'4 4.3
2014-Jul-27 23:33N 26°28' W 078°53'60 2.5
2014-Jul-26 23:25N 26°46' W 079°56'6 6.1
2014-Jul-26 22:25N 26°46' W 080°03'0 0.0
2014-Jul-26 21:07N 26°46' W 080°03'0 0.0
2014-Jul-26 20:31N 26°46' W 080°03'0 0.0
2014-Jul-26 19:07N 26°46' W 080°03'0 0.0
2014-Jul-26 17:31N 26°46' W 080°03'0 0.0
2014-Jul-26 14:25N 26°46' W 080°03'0 0.0
2014-Jul-26 12:13N 26°46' W 080°03'0 0.0
2014-Jul-26 11:25N 26°46' W 080°03'4 4.5
2014-Jul-26 10:33N 26°45' W 079°59'8 8.2
2014-Jul-26 09:33N 26°41' W 079°51'8 8.1
2014-Jul-26 08:33N 26°38' W 079°43'6 6.1
2014-Jul-26 07:31N 26°36' W 079°36'26 0.8
2014-Jul-24 22:27N 26°46' W 080°03'0 0.0
2014-Jul-24 11:13N 26°46' W 080°03'4 6.1
2014-Jul-24 10:31N 26°44' W 079°59'8 8.1
2014-Jul-24 09:32N 26°41' W 079°51'7 7.5
2014-Jul-24 08:33N 26°38' W 079°43'6 5.8
2014-Jul-24 07:33N 26°36' W 079°37'5 4.7
2014-Jul-24 06:33N 26°34' W 079°32'26 0.8
2014-Jul-22 23:10N 26°46' W 079°58'4 6.4
2014-Jul-22 22:33N 26°46' W 080°03'1 0.5
2014-Jul-22 21:32N 26°46' W 080°03'0 0.0
2014-Jul-22 18:11N 26°46' W 080°03'0 0.0
2014-Jul-22 16:11N 26°46' W 080°03'0 0.0
2014-Jul-22 15:17N 26°46' W 080°03'0 0.0
2014-Jul-22 12:11N 26°46' W 080°03'0 0.0
2014-Jul-22 11:21N 26°46' W 080°03'3 3.9
2014-Jul-22 10:33N 26°45' W 079°60'6 6.1
2014-Jul-22 09:34N 26°41' W 079°55'9 8.8
2014-Jul-22 08:33N 26°39' W 079°45'6 6.1
2014-Jul-22 07:33N 26°36' W 079°39'  

Dump ship's entire track history